createdAt,value
2023-03-17T00:00:08.929Z,100501.69
2023-03-17T00:04:15.308Z,100517.09
2023-03-17T00:08:22.991Z,100516.50
2023-03-17T00:12:25.821Z,100521.69
2023-03-17T00:16:32.499Z,100516.88
2023-03-17T00:20:35.484Z,100523.50
2023-03-17T00:24:38.602Z,100524.31
2023-03-17T00:28:41.560Z,100538.44
2023-03-17T00:32:46.825Z,100544.69
2023-03-17T00:36:51.656Z,100544.25
2023-03-17T00:40:54.778Z,100551.91
2023-03-17T00:44:58.387Z,100548.38
2023-03-17T00:49:03.503Z,100561.66
2023-03-17T00:53:08.619Z,100554.00
2023-03-17T00:57:12.692Z,100542.22
2023-03-17T01:01:16.002Z,100516.34
2023-03-17T01:05:21.772Z,100513.72
2023-03-17T01:09:28.222Z,100507.09
2023-03-17T01:13:31.259Z,100495.25
2023-03-17T01:17:35.303Z,100490.28
2023-03-17T01:21:40.698Z,100479.53
2023-03-17T01:25:45.339Z,100484.78
2023-03-17T01:29:48.238Z,100489.38
2023-03-17T01:33:52.741Z,100482.72
2023-03-17T01:37:58.059Z,100482.56
2023-03-17T01:42:01.496Z,100481.34
2023-03-17T01:46:28.339Z,100476.56
2023-03-17T01:50:31.839Z,100464.53
2023-03-17T01:54:40.910Z,100463.53
2023-03-17T01:58:46.602Z,100455.88
2023-03-17T02:02:51.611Z,100461.75
2023-03-17T02:06:58.357Z,100456.72
2023-03-17T02:11:05.054Z,100459.41
2023-03-17T02:15:09.753Z,100458.00
2023-03-17T02:19:12.868Z,100448.28
2023-03-17T02:23:20.051Z,100444.56
2023-03-17T02:27:27.681Z,100445.53
2023-03-17T02:31:31.203Z,100447.41
2023-03-17T02:35:34.012Z,100439.81
2023-03-17T02:39:38.388Z,100446.44
2023-03-17T02:43:41.383Z,100431.16
2023-03-17T02:47:44.762Z,100424.94
2023-03-17T02:51:48.078Z,100429.06
2023-03-17T02:55:52.391Z,100429.28
2023-03-17T02:59:55.422Z,100435.97
2023-03-17T03:03:58.758Z,100434.38
2023-03-17T03:08:01.613Z,100437.06
2023-03-17T03:12:09.905Z,100430.06
2023-03-17T03:16:13.169Z,100443.31
2023-03-17T03:20:16.265Z,100430.63
2023-03-17T03:24:19.144Z,100417.38
2023-03-17T03:28:23.403Z,100420.25
2023-03-17T03:32:26.455Z,100425.06
2023-03-17T03:36:29.705Z,100427.59
2023-03-17T03:40:32.682Z,100421.31
2023-03-17T03:44:37.180Z,100419.44
2023-03-17T03:48:40.519Z,100420.72
2023-03-17T03:52:43.638Z,100419.44
2023-03-17T03:56:46.500Z,100408.78
2023-03-17T04:00:51.948Z,100412.69
2023-03-17T04:04:55.196Z,100413.44
2023-03-17T04:08:58.493Z,100402.34
2023-03-17T04:13:04.474Z,100412.47
2023-03-17T04:17:09.357Z,100407.44
2023-03-17T04:21:12.305Z,100400.31
2023-03-17T04:25:16.657Z,100400.22
2023-03-17T04:29:20.059Z,100391.66
2023-03-17T04:33:24.958Z,100384.38
2023-03-17T04:37:28.083Z,100387.88
2023-03-17T04:41:31.113Z,100390.97
2023-03-17T04:45:34.118Z,100391.56
2023-03-17T04:49:38.485Z,100373.94
2023-03-17T04:53:41.419Z,100393.44
2023-03-17T04:57:44.911Z,100400.97
2023-03-17T05:01:47.979Z,100410.75
2023-03-17T05:05:52.719Z,100409.31
2023-03-17T05:09:55.527Z,100423.06
2023-03-17T05:13:58.466Z,100425.00
2023-03-17T05:18:03.305Z,100423.44
2023-03-17T05:22:09.519Z,100418.56
2023-03-17T05:26:13.079Z,100415.78
2023-03-17T05:30:16.962Z,100408.63
2023-03-17T05:34:19.831Z,100419.34
2023-03-17T05:38:24.047Z,100423.84
2023-03-17T05:42:27.160Z,100436.78
2023-03-17T05:46:30.137Z,100426.47
2023-03-17T05:50:33.369Z,100425.72
2023-03-17T05:54:38.388Z,100427.19
2023-03-17T05:58:41.634Z,100424.97
2023-03-17T06:02:44.955Z,100419.63
2023-03-17T06:06:48.561Z,100424.03
2023-03-17T06:10:52.785Z,100421.16
2023-03-17T06:14:55.907Z,100417.03
2023-03-17T06:18:58.660Z,100407.06
2023-03-17T06:23:05.259Z,100405.19
2023-03-17T06:27:10.878Z,100396.84
2023-03-17T06:31:13.849Z,100404.91
2023-03-17T06:35:17.920Z,100409.38
2023-03-17T06:39:21.379Z,100411.38
2023-03-17T06:43:25.661Z,100411.03
2023-03-17T06:47:28.543Z,100407.56
2023-03-17T06:51:32.447Z,100398.63
2023-03-17T06:55:35.727Z,100406.78
2023-03-17T06:59:40.337Z,100408.19
2023-03-17T07:03:43.718Z,100417.13
2023-03-17T07:07:46.992Z,100411.06
2023-03-17T07:11:49.975Z,100415.63
2023-03-17T07:15:55.547Z,100418.06
2023-03-17T07:19:59.479Z,100409.75
2023-03-17T07:24:02.624Z,100407.38
2023-03-17T07:28:05.845Z,100410.91
2023-03-17T07:32:10.348Z,100408.06
2023-03-17T07:36:13.553Z,100417.13
2023-03-17T07:40:18.341Z,100404.72
2023-03-17T07:44:21.303Z,100403.72
2023-03-17T07:48:25.593Z,100403.31
2023-03-17T07:52:28.463Z,100385.44
2023-03-17T07:56:33.274Z,100381.47
2023-03-17T08:00:36.588Z,100375.47
2023-03-17T08:04:41.522Z,100385.53
2023-03-17T08:08:44.470Z,100392.03
2023-03-17T08:12:51.785Z,100383.91
2023-03-17T08:16:55.700Z,100379.00
2023-03-17T08:20:59.944Z,100385.22
2023-03-17T08:25:03.485Z,100387.09
2023-03-17T08:29:08.024Z,100396.78
2023-03-17T08:33:11.446Z,100390.47
2023-03-17T08:37:16.306Z,100382.19
2023-03-17T08:41:21.281Z,100388.66
2023-03-17T08:45:24.651Z,100397.34
2023-03-17T08:49:28.453Z,100399.38
2023-03-17T08:53:34.861Z,100391.91
2023-03-17T08:57:38.922Z,100371.88
2023-03-17T09:01:44.077Z,100375.53
2023-03-17T09:05:47.103Z,100364.44
2023-03-17T09:09:51.705Z,100357.72
2023-03-17T09:13:55.590Z,100361.38
2023-03-17T09:17:59.045Z,100373.50
2023-03-17T09:22:03.813Z,100385.56
2023-03-17T09:26:08.872Z,100393.03
2023-03-17T09:30:13.989Z,100394.16
2023-03-17T09:34:16.828Z,100391.47
2023-03-17T09:38:19.656Z,100395.34
2023-03-17T09:42:39.177Z,100371.84
2023-03-17T09:46:49.405Z,100370.16
2023-03-17T09:50:57.481Z,100375.53
2023-03-17T09:55:03.239Z,100383.72
2023-03-17T09:59:21.507Z,100381.03
2023-03-17T10:03:27.287Z,100384.59
2023-03-17T10:07:42.987Z,100384.34
2023-03-17T10:11:48.803Z,100386.22
2023-03-17T10:15:58.297Z,100390.84
2023-03-17T10:20:06.963Z,100387.25
2023-03-17T10:24:12.223Z,100389.97
2023-03-17T10:28:27.121Z,100388.28
2023-03-17T10:32:32.964Z,100391.72
2023-03-17T10:36:38.817Z,100389.63
2023-03-17T10:40:42.682Z,100388.44
2023-03-17T10:44:51.155Z,100385.84
2023-03-17T10:48:58.337Z,100374.84
2023-03-17T10:53:07.886Z,100365.38
2023-03-17T10:57:14.303Z,100373.38
2023-03-17T11:01:23.744Z,100381.97
2023-03-17T11:05:29.917Z,100388.38
2023-03-17T11:09:36.895Z,100374.38
2023-03-17T11:13:40.889Z,100366.13
2023-03-17T11:17:52.470Z,100368.59
2023-03-17T11:22:06.646Z,100365.53
2023-03-17T11:26:24.248Z,100347.75
2023-03-17T11:30:32.791Z,100353.22
2023-03-17T11:34:57.388Z,100359.03
2023-03-17T11:39:11.606Z,100359.66
2023-03-17T11:43:29.114Z,100348.25
2023-03-17T11:47:58.260Z,100351.03
2023-03-17T11:52:06.475Z,100334.34
2023-03-17T11:56:18.995Z,100332.97
2023-03-17T12:00:28.943Z,100332.75
2023-03-17T12:04:37.847Z,100331.47
2023-03-17T12:08:46.452Z,100338.91
2023-03-17T12:12:54.360Z,100334.81
2023-03-17T12:17:04.902Z,100330.72
2023-03-17T12:21:16.108Z,100343.38
2023-03-17T12:25:25.621Z,100352.59
2023-03-17T12:29:43.525Z,100335.13
2023-03-17T12:33:53.417Z,100334.00
2023-03-17T12:38:00.440Z,100343.75
2023-03-17T12:42:27.308Z,100338.25
2023-03-17T12:47:15.755Z,100306.47
2023-03-17T12:51:44.829Z,100296.13
2023-03-17T12:55:51.997Z,100291.13
2023-03-17T13:00:01.743Z,100290.72
2023-03-17T13:04:26.465Z,100296.13
2023-03-17T13:08:32.258Z,100284.28
2023-03-17T13:13:05.673Z,100286.16
2023-03-17T13:17:34.138Z,100305.44
2023-03-17T13:21:38.936Z,100305.31
2023-03-17T13:25:53.376Z,100307.66
2023-03-17T13:29:56.535Z,100305.06
2023-03-17T13:34:07.922Z,100300.09
2023-03-17T13:38:32.139Z,100297.34
2023-03-17T13:42:54.334Z,100297.41
2023-03-17T13:47:15.869Z,100304.97
2023-03-17T13:51:22.434Z,100297.72
2023-03-17T13:55:41.115Z,100298.31
2023-03-17T13:59:57.178Z,100289.53
2023-03-17T14:04:04.108Z,100296.38
2023-03-17T14:08:16.774Z,100294.00
2023-03-17T14:12:27.661Z,100282.28
2023-03-17T14:16:35.487Z,100280.66
2023-03-17T14:20:38.403Z,100279.28
2023-03-17T14:24:41.581Z,100283.97
2023-03-17T14:28:45.944Z,100271.34
2023-03-17T14:32:51.609Z,100269.00
2023-03-17T14:36:55.307Z,100262.69
2023-03-17T14:41:02.922Z,100256.41
2023-03-17T14:45:09.540Z,100258.53
2023-03-17T14:49:17.612Z,100272.16
2023-03-17T14:53:23.939Z,100261.88
2023-03-17T14:57:29.593Z,100259.13
2023-03-17T15:01:37.644Z,100255.56
2023-03-17T15:05:43.006Z,100239.06
2023-03-17T15:09:45.895Z,100240.78
2023-03-17T15:13:51.002Z,100246.06
2023-03-17T15:17:57.981Z,100237.72
2023-03-17T15:22:06.203Z,100238.78
2023-03-17T15:26:23.464Z,100249.66
2023-03-17T15:30:37.350Z,100245.59
2023-03-17T15:34:51.318Z,100247.91
2023-03-17T15:38:55.259Z,100241.16
2023-03-17T15:42:58.943Z,100238.97
2023-03-17T15:47:01.774Z,100251.91
2023-03-17T15:51:07.456Z,100253.84
2023-03-17T15:55:20.908Z,100253.84
2023-03-17T15:59:24.521Z,100245.59
2023-03-17T16:03:31.158Z,100250.19
2023-03-17T16:07:35.280Z,100240.31
2023-03-17T16:11:40.343Z,100232.38
2023-03-17T16:15:53.933Z,100228.78
2023-03-17T16:19:57.350Z,100237.34
2023-03-17T16:24:01.467Z,100239.28
2023-03-17T16:28:16.438Z,100245.06
2023-03-17T16:32:19.300Z,100231.19
2023-03-17T16:36:24.047Z,100239.19
2023-03-17T16:40:34.195Z,100232.97
2023-03-17T16:44:37.272Z,100242.38
2023-03-17T16:48:52.278Z,100243.59
2023-03-17T16:53:01.133Z,100256.84
2023-03-17T16:57:10.585Z,100259.16
2023-03-17T17:01:17.877Z,100251.56
2023-03-17T17:05:22.997Z,100254.16
2023-03-17T17:09:26.237Z,100253.19
2023-03-17T17:13:31.518Z,100255.72
2023-03-17T17:17:35.743Z,100266.50
2023-03-17T17:21:38.458Z,100265.78
2023-03-17T17:25:41.455Z,100268.41
2023-03-17T17:29:45.627Z,100269.09
2023-03-17T17:33:48.472Z,100269.22
2023-03-17T17:37:51.435Z,100271.00
2023-03-17T17:41:56.393Z,100272.25
2023-03-17T17:46:01.762Z,100261.09
2023-03-17T17:50:05.815Z,100271.03
2023-03-17T17:54:10.203Z,100280.94
2023-03-17T17:58:14.313Z,100285.94
2023-03-17T18:02:18.493Z,100289.56
2023-03-17T18:06:22.203Z,100277.28
2023-03-17T18:10:26.755Z,100286.63
2023-03-17T18:14:30.014Z,100278.72
2023-03-17T18:18:42.325Z,100284.78
2023-03-17T18:22:45.886Z,100296.88
2023-03-17T18:26:49.540Z,100297.97
2023-03-17T18:30:52.717Z,100289.53
2023-03-17T18:35:00.584Z,100279.13
2023-03-17T18:39:04.081Z,100266.84
2023-03-17T18:43:07.050Z,100273.94
2023-03-17T18:47:10.512Z,100285.72
2023-03-17T18:51:16.215Z,100277.50
2023-03-17T18:55:31.426Z,100276.41
2023-03-17T18:59:34.350Z,100291.47
2023-03-17T19:03:37.733Z,100292.53
2023-03-17T19:07:42.061Z,100288.72
2023-03-17T19:11:56.221Z,100295.28
2023-03-17T19:15:59.284Z,100286.53
2023-03-17T19:20:03.618Z,100284.63
2023-03-17T19:24:10.148Z,100292.81
2023-03-17T19:28:15.596Z,100299.91
2023-03-17T19:32:21.968Z,100292.81
2023-03-17T19:36:25.879Z,100286.53
2023-03-17T19:40:30.808Z,100295.28
2023-03-17T19:44:33.736Z,100278.59
2023-03-17T19:48:37.406Z,100284.34
2023-03-17T19:52:40.405Z,100282.16
2023-03-17T19:56:44.657Z,100273.41
2023-03-17T20:00:47.839Z,100281.63
2023-03-17T20:04:51.088Z,100279.16
2023-03-17T20:08:54.130Z,100285.16
2023-03-17T20:12:58.667Z,100282.97
2023-03-17T20:17:01.429Z,100287.03
2023-03-17T20:21:07.714Z,100293.34
2023-03-17T20:25:12.349Z,100297.69
2023-03-17T20:29:17.544Z,100297.69
2023-03-17T20:33:20.448Z,100298.50
2023-03-17T20:37:24.753Z,100300.94
2023-03-17T20:41:28.067Z,100298.47
2023-03-17T20:45:32.396Z,100306.63
2023-03-17T20:49:35.976Z,100296.53
2023-03-17T20:53:39.067Z,100294.59
2023-03-17T20:57:45.248Z,100301.69
2023-03-17T21:01:49.970Z,100305.47
2023-03-17T21:05:53.466Z,100312.25
2023-03-17T21:09:56.749Z,100307.59
2023-03-17T21:14:03.314Z,100314.66
2023-03-17T21:18:08.291Z,100321.75
2023-03-17T21:22:12.376Z,100314.63
2023-03-17T21:26:15.986Z,100314.38
2023-03-17T21:30:19.111Z,100318.19
2023-03-17T21:34:24.298Z,100325.53
2023-03-17T21:38:29.592Z,100326.63
2023-03-17T21:42:33.340Z,100320.91
2023-03-17T21:46:36.352Z,100328.56
2023-03-17T21:50:40.504Z,100319.00
2023-03-17T21:54:51.674Z,100322.81
2023-03-17T21:58:54.672Z,100323.63
2023-03-17T22:03:01.318Z,100320.94
2023-03-17T22:07:06.011Z,100323.94
2023-03-17T22:11:11.177Z,100324.78
2023-03-17T22:15:14.371Z,100331.06
2023-03-17T22:19:20.595Z,100340.34
2023-03-17T22:23:26.007Z,100338.16
2023-03-17T22:27:29.247Z,100344.44
2023-03-17T22:31:32.540Z,100345.56
2023-03-17T22:35:36.342Z,100343.13
2023-03-17T22:39:41.646Z,100336.81
2023-03-17T22:43:44.830Z,100339.53
2023-03-17T22:47:47.542Z,100329.72
2023-03-17T22:51:51.183Z,100334.94
2023-03-17T22:56:04.995Z,100327.28
2023-03-17T23:00:13.908Z,100331.38
2023-03-17T23:04:18.386Z,100333.59
2023-03-17T23:08:22.090Z,100325.66
2023-03-17T23:12:28.246Z,100327.56
2023-03-17T23:16:32.069Z,100333.59
2023-03-17T23:20:34.878Z,100330.84
2023-03-17T23:24:37.832Z,100339.03
2023-03-17T23:28:44.273Z,100334.38
2023-03-17T23:32:49.099Z,100334.38
2023-03-17T23:36:52.368Z,100339.03
2023-03-17T23:40:57.492Z,100342.56
2023-03-17T23:45:02.032Z,100340.94
2023-03-17T23:49:07.144Z,100347.72
2023-03-17T23:53:11.511Z,100359.50
2023-03-17T23:57:16.285Z,100365.50
